sensor_id;sensor_type;location;lat;lon;timestamp;P1;durP1;ratioP1;P2;durP2;ratioP2
43817;SDS011;29868;47.360;18.984;2022-11-14T00:02:17;72.47;;;22.65;;
43817;SDS011;29868;47.360;18.984;2022-11-14T00:04:46;77.70;;;22.88;;
43817;SDS011;29868;47.360;18.984;2022-11-14T00:07:12;74.38;;;23.50;;
43817;SDS011;29868;47.360;18.984;2022-11-14T00:09:38;84.18;;;25.23;;
43817;SDS011;29868;47.360;18.984;2022-11-14T00:12:06;80.25;;;23.42;;
43817;SDS011;29868;47.360;18.984;2022-11-14T00:14:33;79.57;;;23.55;;
43817;SDS011;29868;47.360;18.984;2022-11-14T00:16:58;78.20;;;24.67;;
43817;SDS011;29868;47.360;18.984;2022-11-14T00:19:23;89.32;;;26.63;;
43817;SDS011;29868;47.360;18.984;2022-11-14T00:21:49;78.43;;;24.60;;
43817;SDS011;29868;47.360;18.984;2022-11-14T00:24:16;73.10;;;23.33;;
43817;SDS011;29868;47.360;18.984;2022-11-14T00:26:41;76.05;;;23.02;;
43817;SDS011;29868;47.360;18.984;2022-11-14T00:29:09;79.82;;;24.15;;
43817;SDS011;29868;47.360;18.984;2022-11-14T00:31:38;79.50;;;24.15;;
43817;SDS011;29868;47.360;18.984;2022-11-14T00:34:04;81.18;;;25.65;;
43817;SDS011;29868;47.360;18.984;2022-11-14T00:36:29;83.38;;;24.17;;
43817;SDS011;29868;47.360;18.984;2022-11-14T00:38:55;79.88;;;23.77;;
43817;SDS011;29868;47.360;18.984;2022-11-14T00:41:20;71.15;;;22.83;;
43817;SDS011;29868;47.360;18.984;2022-11-14T00:43:46;76.90;;;23.05;;
43817;SDS011;29868;47.360;18.984;2022-11-14T00:46:11;91.10;;;25.05;;
43817;SDS011;29868;47.360;18.984;2022-11-14T00:48:37;77.32;;;24.15;;
43817;SDS011;29868;47.360;18.984;2022-11-14T00:51:02;82.20;;;24.15;;
43817;SDS011;29868;47.360;18.984;2022-11-14T00:53:27;79.30;;;23.35;;
43817;SDS011;29868;47.360;18.984;2022-11-14T00:55:53;65.10;;;22.80;;
43817;SDS011;29868;47.360;18.984;2022-11-14T00:58:18;75.82;;;23.42;;
43817;SDS011;29868;47.360;18.984;2022-11-14T01:00:43;98.80;;;24.42;;
43817;SDS011;29868;47.360;18.984;2022-11-14T01:03:09;83.35;;;24.00;;
43817;SDS011;29868;47.360;18.984;2022-11-14T01:05:39;81.10;;;23.25;;
43817;SDS011;29868;47.360;18.984;2022-11-14T01:08:12;81.60;;;24.02;;
43817;SDS011;29868;47.360;18.984;2022-11-14T01:10:44;78.40;;;23.80;;
43817;SDS011;29868;47.360;18.984;2022-11-14T01:13:14;81.53;;;23.98;;
43817;SDS011;29868;47.360;18.984;2022-11-14T01:15:44;78.25;;;24.15;;
43817;SDS011;29868;47.360;18.984;2022-11-14T01:18:16;72.72;;;22.20;;
43817;SDS011;29868;47.360;18.984;2022-11-14T01:20:44;82.38;;;23.23;;
43817;SDS011;29868;47.360;18.984;2022-11-14T01:23:11;75.05;;;22.75;;
43817;SDS011;29868;47.360;18.984;2022-11-14T01:25:38;74.85;;;23.83;;
43817;SDS011;29868;47.360;18.984;2022-11-14T01:28:05;68.82;;;23.00;;
43817;SDS011;29868;47.360;18.984;2022-11-14T01:30:34;71.43;;;24.02;;
43817;SDS011;29868;47.360;18.984;2022-11-14T01:33:00;91.80;;;24.95;;
43817;SDS011;29868;47.360;18.984;2022-11-14T01:35:26;75.68;;;23.00;;
43817;SDS011;29868;47.360;18.984;2022-11-14T01:37:51;71.10;;;23.83;;
43817;SDS011;29868;47.360;18.984;2022-11-14T01:40:17;80.40;;;23.50;;
43817;SDS011;29868;47.360;18.984;2022-11-14T01:43:08;82.60;;;22.98;;
43817;SDS011;29868;47.360;18.984;2022-11-14T01:45:53;78.18;;;22.13;;
43817;SDS011;29868;47.360;18.984;2022-11-14T01:48:29;71.95;;;23.17;;
43817;SDS011;29868;47.360;18.984;2022-11-14T01:53:45;81.70;;;24.17;;
43817;SDS011;29868;47.360;18.984;2022-11-14T01:56:14;73.80;;;23.23;;
43817;SDS011;29868;47.360;18.984;2022-11-14T01:58:44;78.68;;;22.98;;
43817;SDS011;29868;47.360;18.984;2022-11-14T02:01:13;78.35;;;24.17;;
43817;SDS011;29868;47.360;18.984;2022-11-14T02:03:39;77.35;;;23.58;;
43817;SDS011;29868;47.360;18.984;2022-11-14T02:06:08;84.03;;;25.20;;
43817;SDS011;29868;47.360;18.984;2022-11-14T02:08:37;83.07;;;24.23;;
43817;SDS011;29868;47.360;18.984;2022-11-14T02:11:04;77.05;;;23.23;;
43817;SDS011;29868;47.360;18.984;2022-11-14T02:13:29;88.07;;;24.02;;
43817;SDS011;29868;47.360;18.984;2022-11-14T02:15:55;79.18;;;24.58;;
43817;SDS011;29868;47.360;18.984;2022-11-14T02:18:21;88.38;;;24.98;;
43817;SDS011;29868;47.360;18.984;2022-11-14T02:20:46;85.03;;;25.60;;
43817;SDS011;29868;47.360;18.984;2022-11-14T02:23:11;80.82;;;24.40;;
43817;SDS011;29868;47.360;18.984;2022-11-14T02:25:37;94.65;;;25.92;;
43817;SDS011;29868;47.360;18.984;2022-11-14T02:28:04;83.47;;;22.65;;
43817;SDS011;29868;47.360;18.984;2022-11-14T02:30:32;83.43;;;24.60;;
43817;SDS011;29868;47.360;18.984;2022-11-14T02:32:58;74.55;;;23.25;;
43817;SDS011;29868;47.360;18.984;2022-11-14T02:35:23;85.35;;;23.70;;
43817;SDS011;29868;47.360;18.984;2022-11-14T02:37:49;82.32;;;24.50;;
43817;SDS011;29868;47.360;18.984;2022-11-14T02:40:14;74.35;;;23.95;;
43817;SDS011;29868;47.360;18.984;2022-11-14T02:42:40;94.63;;;25.10;;
43817;SDS011;29868;47.360;18.984;2022-11-14T02:45:05;77.65;;;24.27;;
43817;SDS011;29868;47.360;18.984;2022-11-14T02:47:31;77.22;;;24.65;;
43817;SDS011;29868;47.360;18.984;2022-11-14T02:49:57;78.63;;;23.77;;
43817;SDS011;29868;47.360;18.984;2022-11-14T02:52:22;87.88;;;24.80;;
43817;SDS011;29868;47.360;18.984;2022-11-14T02:54:47;77.80;;;23.27;;
43817;SDS011;29868;47.360;18.984;2022-11-14T02:57:13;79.70;;;23.92;;
43817;SDS011;29868;47.360;18.984;2022-11-14T02:59:38;76.68;;;24.30;;
43817;SDS011;29868;47.360;18.984;2022-11-14T03:02:03;82.22;;;25.00;;
43817;SDS011;29868;47.360;18.984;2022-11-14T03:04:29;78.68;;;24.35;;
43817;SDS011;29868;47.360;18.984;2022-11-14T03:06:54;82.85;;;24.40;;
43817;SDS011;29868;47.360;18.984;2022-11-14T03:09:19;77.28;;;24.70;;
43817;SDS011;29868;47.360;18.984;2022-11-14T03:11:45;72.13;;;22.95;;
43817;SDS011;29868;47.360;18.984;2022-11-14T03:14:10;77.70;;;23.48;;
43817;SDS011;29868;47.360;18.984;2022-11-14T03:16:35;72.00;;;23.35;;
43817;SDS011;29868;47.360;18.984;2022-11-14T03:19:01;76.95;;;22.70;;
43817;SDS011;29868;47.360;18.984;2022-11-14T03:21:26;76.65;;;23.58;;
43817;SDS011;29868;47.360;18.984;2022-11-14T03:23:52;66.15;;;22.63;;
43817;SDS011;29868;47.360;18.984;2022-11-14T03:26:17;69.97;;;22.60;;
43817;SDS011;29868;47.360;18.984;2022-11-14T03:28:43;72.32;;;23.45;;
43817;SDS011;29868;47.360;18.984;2022-11-14T03:31:10;76.25;;;23.60;;
43817;SDS011;29868;47.360;18.984;2022-11-14T03:33:36;70.70;;;21.52;;
43817;SDS011;29868;47.360;18.984;2022-11-14T03:36:02;65.93;;;23.60;;
43817;SDS011;29868;47.360;18.984;2022-11-14T03:38:28;62.40;;;21.52;;
43817;SDS011;29868;47.360;18.984;2022-11-14T03:40:54;64.30;;;21.67;;
43817;SDS011;29868;47.360;18.984;2022-11-14T03:43:22;73.53;;;23.30;;
43817;SDS011;29868;47.360;18.984;2022-11-14T03:45:47;59.03;;;20.92;;
43817;SDS011;29868;47.360;18.984;2022-11-14T03:48:12;64.90;;;21.58;;
43817;SDS011;29868;47.360;18.984;2022-11-14T03:50:39;61.42;;;21.40;;
43817;SDS011;29868;47.360;18.984;2022-11-14T03:53:05;62.30;;;20.95;;
43817;SDS011;29868;47.360;18.984;2022-11-14T03:55:31;61.55;;;21.73;;
43817;SDS011;29868;47.360;18.984;2022-11-14T03:57:56;59.45;;;21.42;;
43817;SDS011;29868;47.360;18.984;2022-11-14T04:00:21;59.03;;;21.35;;
43817;SDS011;29868;47.360;18.984;2022-11-14T04:02:47;55.13;;;20.65;;
43817;SDS011;29868;47.360;18.984;2022-11-14T04:05:12;58.47;;;20.38;;
43817;SDS011;29868;47.360;18.984;2022-11-14T04:07:38;68.53;;;22.63;;
43817;SDS011;29868;47.360;18.984;2022-11-14T04:10:04;61.35;;;21.55;;
43817;SDS011;29868;47.360;18.984;2022-11-14T04:12:30;52.42;;;19.50;;
43817;SDS011;29868;47.360;18.984;2022-11-14T04:14:55;50.53;;;19.58;;
43817;SDS011;29868;47.360;18.984;2022-11-14T04:17:21;59.38;;;21.90;;
43817;SDS011;29868;47.360;18.984;2022-11-14T04:19:46;53.30;;;21.05;;
43817;SDS011;29868;47.360;18.984;2022-11-14T04:22:11;57.47;;;20.40;;
43817;SDS011;29868;47.360;18.984;2022-11-14T04:24:37;50.97;;;19.52;;
43817;SDS011;29868;47.360;18.984;2022-11-14T04:27:02;53.33;;;21.38;;
43817;SDS011;29868;47.360;18.984;2022-11-14T04:29:27;50.25;;;20.02;;
43817;SDS011;29868;47.360;18.984;2022-11-14T04:31:53;51.70;;;20.40;;
43817;SDS011;29868;47.360;18.984;2022-11-14T04:34:18;51.53;;;19.70;;
43817;SDS011;29868;47.360;18.984;2022-11-14T04:36:43;53.20;;;21.27;;
43817;SDS011;29868;47.360;18.984;2022-11-14T04:39:09;55.72;;;21.52;;
43817;SDS011;29868;47.360;18.984;2022-11-14T04:41:34;52.53;;;19.77;;
43817;SDS011;29868;47.360;18.984;2022-11-14T04:43:59;55.05;;;19.20;;
43817;SDS011;29868;47.360;18.984;2022-11-14T04:46:25;57.60;;;20.38;;
43817;SDS011;29868;47.360;18.984;2022-11-14T04:48:50;48.33;;;18.88;;
43817;SDS011;29868;47.360;18.984;2022-11-14T04:51:16;47.65;;;19.33;;
43817;SDS011;29868;47.360;18.984;2022-11-14T04:53:41;48.83;;;21.10;;
43817;SDS011;29868;47.360;18.984;2022-11-14T04:56:07;48.67;;;19.67;;
43817;SDS011;29868;47.360;18.984;2022-11-14T04:58:32;50.35;;;19.58;;
43817;SDS011;29868;47.360;18.984;2022-11-14T05:00:58;50.42;;;19.55;;
43817;SDS011;29868;47.360;18.984;2022-11-14T05:03:23;57.45;;;21.83;;
43817;SDS011;29868;47.360;18.984;2022-11-14T05:05:49;51.28;;;19.95;;
43817;SDS011;29868;47.360;18.984;2022-11-14T05:08:15;51.97;;;19.55;;
43817;SDS011;29868;47.360;18.984;2022-11-14T05:10:44;48.42;;;20.10;;
43817;SDS011;29868;47.360;18.984;2022-11-14T05:13:10;53.08;;;20.90;;
43817;SDS011;29868;47.360;18.984;2022-11-14T05:15:36;54.95;;;20.90;;
43817;SDS011;29868;47.360;18.984;2022-11-14T05:18:01;56.78;;;21.88;;
43817;SDS011;29868;47.360;18.984;2022-11-14T05:20:27;54.20;;;22.27;;
43817;SDS011;29868;47.360;18.984;2022-11-14T05:22:53;66.50;;;22.45;;
43817;SDS011;29868;47.360;18.984;2022-11-14T05:25:19;59.00;;;22.95;;
43817;SDS011;29868;47.360;18.984;2022-11-14T05:27:45;59.75;;;21.95;;
43817;SDS011;29868;47.360;18.984;2022-11-14T05:30:11;58.03;;;22.15;;
43817;SDS011;29868;47.360;18.984;2022-11-14T05:32:36;59.70;;;21.63;;
43817;SDS011;29868;47.360;18.984;2022-11-14T05:35:02;61.78;;;22.65;;
43817;SDS011;29868;47.360;18.984;2022-11-14T05:37:28;59.75;;;22.75;;
43817;SDS011;29868;47.360;18.984;2022-11-14T05:39:53;59.50;;;22.02;;
43817;SDS011;29868;47.360;18.984;2022-11-14T05:42:19;66.38;;;22.45;;
43817;SDS011;29868;47.360;18.984;2022-11-14T05:44:44;57.67;;;20.88;;
43817;SDS011;29868;47.360;18.984;2022-11-14T05:47:10;58.95;;;20.88;;
43817;SDS011;29868;47.360;18.984;2022-11-14T05:49:35;48.30;;;19.77;;
43817;SDS011;29868;47.360;18.984;2022-11-14T05:52:00;61.97;;;21.60;;
43817;SDS011;29868;47.360;18.984;2022-11-14T05:54:26;61.58;;;22.95;;
43817;SDS011;29868;47.360;18.984;2022-11-14T05:56:51;67.05;;;23.00;;
43817;SDS011;29868;47.360;18.984;2022-11-14T05:59:16;65.07;;;23.23;;
43817;SDS011;29868;47.360;18.984;2022-11-14T06:01:42;65.78;;;22.63;;
43817;SDS011;29868;47.360;18.984;2022-11-14T06:04:07;54.88;;;21.38;;
43817;SDS011;29868;47.360;18.984;2022-11-14T06:06:33;64.15;;;22.58;;
43817;SDS011;29868;47.360;18.984;2022-11-14T06:08:58;60.72;;;22.42;;
43817;SDS011;29868;47.360;18.984;2022-11-14T06:11:23;60.67;;;23.05;;
43817;SDS011;29868;47.360;18.984;2022-11-14T06:13:49;53.95;;;20.92;;
43817;SDS011;29868;47.360;18.984;2022-11-14T06:16:15;57.15;;;20.45;;
43817;SDS011;29868;47.360;18.984;2022-11-14T06:18:42;63.13;;;22.70;;
43817;SDS011;29868;47.360;18.984;2022-11-14T06:21:15;59.92;;;22.23;;
43817;SDS011;29868;47.360;18.984;2022-11-14T06:23:42;56.67;;;22.77;;
43817;SDS011;29868;47.360;18.984;2022-11-14T06:28:43;63.35;;;21.77;;
43817;SDS011;29868;47.360;18.984;2022-11-14T06:31:09;58.45;;;21.25;;
43817;SDS011;29868;47.360;18.984;2022-11-14T06:33:34;57.70;;;21.95;;
43817;SDS011;29868;47.360;18.984;2022-11-14T06:36:02;62.45;;;23.17;;
43817;SDS011;29868;47.360;18.984;2022-11-14T06:38:29;55.33;;;21.42;;
43817;SDS011;29868;47.360;18.984;2022-11-14T06:41:03;64.05;;;22.75;;
43817;SDS011;29868;47.360;18.984;2022-11-14T06:43:37;61.25;;;23.40;;
43817;SDS011;29868;47.360;18.984;2022-11-14T06:46:04;62.80;;;23.83;;
43817;SDS011;29868;47.360;18.984;2022-11-14T06:48:30;65.90;;;23.65;;
43817;SDS011;29868;47.360;18.984;2022-11-14T06:50:56;66.22;;;22.98;;
43817;SDS011;29868;47.360;18.984;2022-11-14T06:53:22;61.72;;;22.63;;
43817;SDS011;29868;47.360;18.984;2022-11-14T06:55:54;60.50;;;22.13;;
43817;SDS011;29868;47.360;18.984;2022-11-14T06:58:21;59.40;;;21.70;;
43817;SDS011;29868;47.360;18.984;2022-11-14T07:00:46;61.83;;;22.42;;
43817;SDS011;29868;47.360;18.984;2022-11-14T07:03:12;61.55;;;22.50;;
43817;SDS011;29868;47.360;18.984;2022-11-14T07:05:37;55.75;;;21.33;;
43817;SDS011;29868;47.360;18.984;2022-11-14T07:08:02;62.67;;;22.42;;
43817;SDS011;29868;47.360;18.984;2022-11-14T07:10:28;61.13;;;22.70;;
43817;SDS011;29868;47.360;18.984;2022-11-14T07:12:53;54.50;;;22.75;;
43817;SDS011;29868;47.360;18.984;2022-11-14T07:15:19;57.75;;;22.80;;
43817;SDS011;29868;47.360;18.984;2022-11-14T07:17:44;54.15;;;20.88;;
43817;SDS011;29868;47.360;18.984;2022-11-14T07:20:09;60.83;;;22.67;;
43817;SDS011;29868;47.360;18.984;2022-11-14T07:22:35;59.05;;;22.38;;
43817;SDS011;29868;47.360;18.984;2022-11-14T07:25:00;60.47;;;23.40;;
43817;SDS011;29868;47.360;18.984;2022-11-14T07:27:25;56.67;;;22.15;;
43817;SDS011;29868;47.360;18.984;2022-11-14T07:29:51;52.53;;;22.00;;
43817;SDS011;29868;47.360;18.984;2022-11-14T07:32:16;54.72;;;21.35;;
43817;SDS011;29868;47.360;18.984;2022-11-14T07:34:41;58.53;;;22.55;;
43817;SDS011;29868;47.360;18.984;2022-11-14T07:37:07;55.35;;;21.38;;
43817;SDS011;29868;47.360;18.984;2022-11-14T07:39:32;59.92;;;22.27;;
43817;SDS011;29868;47.360;18.984;2022-11-14T07:41:57;57.50;;;22.45;;
43817;SDS011;29868;47.360;18.984;2022-11-14T07:44:23;55.47;;;22.38;;
43817;SDS011;29868;47.360;18.984;2022-11-14T07:46:48;52.38;;;20.75;;
43817;SDS011;29868;47.360;18.984;2022-11-14T07:49:15;54.72;;;22.95;;
43817;SDS011;29868;47.360;18.984;2022-11-14T07:51:41;61.53;;;23.85;;
43817;SDS011;29868;47.360;18.984;2022-11-14T07:54:08;52.05;;;22.63;;
43817;SDS011;29868;47.360;18.984;2022-11-14T07:56:35;55.45;;;22.88;;
43817;SDS011;29868;47.360;18.984;2022-11-14T07:59:00;50.28;;;22.17;;
43817;SDS011;29868;47.360;18.984;2022-11-14T08:01:26;52.72;;;22.48;;
43817;SDS011;29868;47.360;18.984;2022-11-14T08:03:51;50.13;;;21.77;;
43817;SDS011;29868;47.360;18.984;2022-11-14T08:06:16;50.88;;;21.90;;
43817;SDS011;29868;47.360;18.984;2022-11-14T08:08:42;53.33;;;22.38;;
43817;SDS011;29868;47.360;18.984;2022-11-14T08:11:07;52.60;;;23.10;;
43817;SDS011;29868;47.360;18.984;2022-11-14T08:13:33;53.80;;;23.58;;
43817;SDS011;29868;47.360;18.984;2022-11-14T08:15:58;48.70;;;22.52;;
43817;SDS011;29868;47.360;18.984;2022-11-14T08:18:27;53.83;;;24.30;;
43817;SDS011;29868;47.360;18.984;2022-11-14T08:20:52;53.33;;;24.35;;
43817;SDS011;29868;47.360;18.984;2022-11-14T08:23:21;50.42;;;22.80;;
43817;SDS011;29868;47.360;18.984;2022-11-14T08:25:46;50.10;;;22.73;;
43817;SDS011;29868;47.360;18.984;2022-11-14T08:28:12;51.85;;;23.00;;
43817;SDS011;29868;47.360;18.984;2022-11-14T08:30:37;45.40;;;21.75;;
43817;SDS011;29868;47.360;18.984;2022-11-14T08:33:03;48.20;;;22.30;;
43817;SDS011;29868;47.360;18.984;2022-11-14T08:35:29;52.50;;;23.50;;
43817;SDS011;29868;47.360;18.984;2022-11-14T08:37:56;47.75;;;21.92;;
43817;SDS011;29868;47.360;18.984;2022-11-14T08:40:21;45.20;;;21.70;;
43817;SDS011;29868;47.360;18.984;2022-11-14T08:42:47;45.80;;;21.35;;
43817;SDS011;29868;47.360;18.984;2022-11-14T08:45:12;44.05;;;21.60;;
43817;SDS011;29868;47.360;18.984;2022-11-14T08:47:37;40.90;;;20.63;;
43817;SDS011;29868;47.360;18.984;2022-11-14T08:50:03;43.10;;;20.35;;
43817;SDS011;29868;47.360;18.984;2022-11-14T08:52:29;43.55;;;21.13;;
43817;SDS011;29868;47.360;18.984;2022-11-14T08:54:54;42.20;;;20.02;;
43817;SDS011;29868;47.360;18.984;2022-11-14T08:57:19;46.75;;;22.52;;
43817;SDS011;29868;47.360;18.984;2022-11-14T08:59:45;43.75;;;20.65;;
43817;SDS011;29868;47.360;18.984;2022-11-14T09:02:13;45.63;;;22.70;;
43817;SDS011;29868;47.360;18.984;2022-11-14T09:04:38;45.70;;;21.27;;
43817;SDS011;29868;47.360;18.984;2022-11-14T09:07:05;38.80;;;20.77;;
43817;SDS011;29868;47.360;18.984;2022-11-14T09:09:30;39.25;;;19.55;;
43817;SDS011;29868;47.360;18.984;2022-11-14T09:11:56;36.88;;;19.33;;
43817;SDS011;29868;47.360;18.984;2022-11-14T09:14:22;40.40;;;18.20;;
43817;SDS011;29868;47.360;18.984;2022-11-14T09:16:47;38.03;;;19.30;;
43817;SDS011;29868;47.360;18.984;2022-11-14T09:19:13;40.83;;;19.52;;
43817;SDS011;29868;47.360;18.984;2022-11-14T09:21:38;38.92;;;18.77;;
43817;SDS011;29868;47.360;18.984;2022-11-14T09:24:04;36.13;;;18.17;;
43817;SDS011;29868;47.360;18.984;2022-11-14T09:26:30;36.80;;;18.90;;
43817;SDS011;29868;47.360;18.984;2022-11-14T09:28:55;34.42;;;17.80;;
43817;SDS011;29868;47.360;18.984;2022-11-14T09:31:21;32.65;;;17.48;;
43817;SDS011;29868;47.360;18.984;2022-11-14T09:33:46;31.85;;;17.08;;
43817;SDS011;29868;47.360;18.984;2022-11-14T09:36:12;31.60;;;17.17;;
43817;SDS011;29868;47.360;18.984;2022-11-14T09:38:42;30.52;;;16.83;;
43817;SDS011;29868;47.360;18.984;2022-11-14T09:41:24;32.67;;;16.75;;
43817;SDS011;29868;47.360;18.984;2022-11-14T09:46:55;33.13;;;16.23;;
43817;SDS011;29868;47.360;18.984;2022-11-14T09:52:20;32.13;;;16.85;;
43817;SDS011;29868;47.360;18.984;2022-11-14T09:54:56;33.42;;;17.88;;
43817;SDS011;29868;47.360;18.984;2022-11-14T09:57:23;31.70;;;17.60;;
43817;SDS011;29868;47.360;18.984;2022-11-14T09:59:50;34.13;;;17.02;;
43817;SDS011;29868;47.360;18.984;2022-11-14T10:05:15;34.08;;;17.92;;
43817;SDS011;29868;47.360;18.984;2022-11-14T10:13:03;35.15;;;18.30;;
43817;SDS011;29868;47.360;18.984;2022-11-14T10:15:51;34.08;;;18.42;;
43817;SDS011;29868;47.360;18.984;2022-11-14T10:20:54;39.65;;;20.02;;
43817;SDS011;29868;47.360;18.984;2022-11-14T10:23:29;42.35;;;21.17;;
43817;SDS011;29868;47.360;18.984;2022-11-14T10:26:19;35.95;;;19.42;;
43817;SDS011;29868;47.360;18.984;2022-11-14T10:40:46;37.25;;;19.52;;
43817;SDS011;29868;47.360;18.984;2022-11-14T10:43:20;36.33;;;19.73;;
43817;SDS011;29868;47.360;18.984;2022-11-14T10:45:50;40.42;;;20.13;;
43817;SDS011;29868;47.360;18.984;2022-11-14T10:48:40;38.58;;;20.23;;
43817;SDS011;29868;47.360;18.984;2022-11-14T10:56:20;34.80;;;19.20;;
43817;SDS011;29868;47.360;18.984;2022-11-14T10:58:45;38.17;;;21.08;;
43817;SDS011;29868;47.360;18.984;2022-11-14T11:06:38;33.97;;;19.33;;
43817;SDS011;29868;47.360;18.984;2022-11-14T11:09:14;34.83;;;20.15;;
43817;SDS011;29868;47.360;18.984;2022-11-14T11:12:00;35.03;;;20.48;;
43817;SDS011;29868;47.360;18.984;2022-11-14T11:14:27;35.22;;;19.98;;
43817;SDS011;29868;47.360;18.984;2022-11-14T11:17:06;35.80;;;20.27;;
43817;SDS011;29868;47.360;18.984;2022-11-14T11:19:34;37.38;;;20.08;;
43817;SDS011;29868;47.360;18.984;2022-11-14T11:22:00;31.85;;;18.65;;
43817;SDS011;29868;47.360;18.984;2022-11-14T11:24:35;34.97;;;19.15;;
43817;SDS011;29868;47.360;18.984;2022-11-14T11:27:11;32.67;;;19.08;;
43817;SDS011;29868;47.360;18.984;2022-11-14T11:29:44;33.55;;;19.75;;
43817;SDS011;29868;47.360;18.984;2022-11-14T11:32:09;33.65;;;19.83;;
43817;SDS011;29868;47.360;18.984;2022-11-14T11:34:35;30.42;;;18.52;;
43817;SDS011;29868;47.360;18.984;2022-11-14T11:39:43;28.45;;;17.63;;
43817;SDS011;29868;47.360;18.984;2022-11-14T11:42:14;33.20;;;18.05;;
43817;SDS011;29868;47.360;18.984;2022-11-14T11:44:46;27.33;;;16.77;;
43817;SDS011;29868;47.360;18.984;2022-11-14T11:47:17;27.65;;;16.58;;
43817;SDS011;29868;47.360;18.984;2022-11-14T11:49:50;27.23;;;16.52;;
43817;SDS011;29868;47.360;18.984;2022-11-14T11:52:17;24.67;;;15.15;;
43817;SDS011;29868;47.360;18.984;2022-11-14T11:57:34;26.27;;;15.43;;
43817;SDS011;29868;47.360;18.984;2022-11-14T12:00:13;26.23;;;15.70;;
43817;SDS011;29868;47.360;18.984;2022-11-14T12:02:41;23.25;;;14.68;;
43817;SDS011;29868;47.360;18.984;2022-11-14T12:05:12;25.10;;;14.77;;
43817;SDS011;29868;47.360;18.984;2022-11-14T12:07:59;24.40;;;14.60;;
43817;SDS011;29868;47.360;18.984;2022-11-14T12:10:29;22.48;;;14.27;;
43817;SDS011;29868;47.360;18.984;2022-11-14T12:26:47;23.13;;;14.38;;
43817;SDS011;29868;47.360;18.984;2022-11-14T12:32:46;28.00;;;16.45;;
43817;SDS011;29868;47.360;18.984;2022-11-14T12:35:17;26.48;;;16.38;;
43817;SDS011;29868;47.360;18.984;2022-11-14T12:37:46;23.60;;;14.82;;
43817;SDS011;29868;47.360;18.984;2022-11-14T12:40:22;23.35;;;14.95;;
43817;SDS011;29868;47.360;18.984;2022-11-14T12:42:55;25.20;;;15.20;;
43817;SDS011;29868;47.360;18.984;2022-11-14T12:48:13;23.95;;;14.75;;
43817;SDS011;29868;47.360;18.984;2022-11-14T12:50:39;23.42;;;14.60;;
43817;SDS011;29868;47.360;18.984;2022-11-14T12:53:35;22.25;;;13.50;;
43817;SDS011;29868;47.360;18.984;2022-11-14T12:58:53;22.73;;;13.63;;
43817;SDS011;29868;47.360;18.984;2022-11-14T13:14:25;22.95;;;13.18;;
43817;SDS011;29868;47.360;18.984;2022-11-14T13:28:42;18.10;;;10.93;;
43817;SDS011;29868;47.360;18.984;2022-11-14T13:31:20;19.15;;;11.18;;
43817;SDS011;29868;47.360;18.984;2022-11-14T13:52:14;17.77;;;11.23;;
43817;SDS011;29868;47.360;18.984;2022-11-14T13:54:47;19.90;;;12.05;;
43817;SDS011;29868;47.360;18.984;2022-11-14T13:57:26;20.23;;;12.32;;
43817;SDS011;29868;47.360;18.984;2022-11-14T14:00:08;25.65;;;14.45;;
43817;SDS011;29868;47.360;18.984;2022-11-14T14:08:09;21.40;;;11.35;;
43817;SDS011;29868;47.360;18.984;2022-11-14T14:11:01;20.02;;;11.45;;
43817;SDS011;29868;47.360;18.984;2022-11-14T14:30:11;28.63;;;17.05;;
43817;SDS011;29868;47.360;18.984;2022-11-14T14:32:39;25.08;;;15.40;;
43817;SDS011;29868;47.360;18.984;2022-11-14T14:37:55;50.22;;;25.88;;
43817;SDS011;29868;47.360;18.984;2022-11-14T14:40:25;42.75;;;25.20;;
43817;SDS011;29868;47.360;18.984;2022-11-14T14:42:54;46.72;;;27.17;;
43817;SDS011;29868;47.360;18.984;2022-11-14T14:45:23;44.63;;;27.42;;
43817;SDS011;29868;47.360;18.984;2022-11-14T14:47:57;29.95;;;18.52;;
43817;SDS011;29868;47.360;18.984;2022-11-14T14:50:34;30.38;;;17.83;;
43817;SDS011;29868;47.360;18.984;2022-11-14T14:53:04;34.72;;;19.80;;
43817;SDS011;29868;47.360;18.984;2022-11-14T14:55:31;33.25;;;19.52;;
43817;SDS011;29868;47.360;18.984;2022-11-14T15:00:52;33.67;;;21.10;;
43817;SDS011;29868;47.360;18.984;2022-11-14T15:03:20;30.23;;;20.35;;
43817;SDS011;29868;47.360;18.984;2022-11-14T15:05:47;35.42;;;20.98;;
43817;SDS011;29868;47.360;18.984;2022-11-14T15:08:13;33.75;;;20.30;;
43817;SDS011;29868;47.360;18.984;2022-11-14T15:10:40;28.77;;;18.13;;
43817;SDS011;29868;47.360;18.984;2022-11-14T15:13:08;29.42;;;17.25;;
43817;SDS011;29868;47.360;18.984;2022-11-14T15:15:38;30.77;;;17.10;;
43817;SDS011;29868;47.360;18.984;2022-11-14T15:18:04;31.35;;;17.63;;
43817;SDS011;29868;47.360;18.984;2022-11-14T15:20:31;28.63;;;16.30;;
43817;SDS011;29868;47.360;18.984;2022-11-14T15:23:00;29.30;;;18.08;;
43817;SDS011;29868;47.360;18.984;2022-11-14T15:25:41;29.10;;;16.20;;
43817;SDS011;29868;47.360;18.984;2022-11-14T15:28:18;30.05;;;18.00;;
43817;SDS011;29868;47.360;18.984;2022-11-14T15:31:00;29.15;;;17.90;;
43817;SDS011;29868;47.360;18.984;2022-11-14T15:33:34;29.88;;;17.15;;
43817;SDS011;29868;47.360;18.984;2022-11-14T15:38:36;31.35;;;18.33;;
43817;SDS011;29868;47.360;18.984;2022-11-14T15:41:08;32.05;;;19.50;;
43817;SDS011;29868;47.360;18.984;2022-11-14T15:46:32;33.97;;;18.30;;
43817;SDS011;29868;47.360;18.984;2022-11-14T15:51:49;33.20;;;18.88;;
43817;SDS011;29868;47.360;18.984;2022-11-14T15:54:22;34.45;;;20.00;;
43817;SDS011;29868;47.360;18.984;2022-11-14T15:56:48;34.88;;;20.23;;
43817;SDS011;29868;47.360;18.984;2022-11-14T15:59:14;40.35;;;22.55;;
43817;SDS011;29868;47.360;18.984;2022-11-14T16:01:39;52.30;;;26.08;;
43817;SDS011;29868;47.360;18.984;2022-11-14T16:04:13;59.33;;;30.23;;
43817;SDS011;29868;47.360;18.984;2022-11-14T16:06:41;57.00;;;29.60;;
43817;SDS011;29868;47.360;18.984;2022-11-14T16:09:11;54.95;;;29.08;;
43817;SDS011;29868;47.360;18.984;2022-11-14T16:11:39;51.03;;;27.48;;
43817;SDS011;29868;47.360;18.984;2022-11-14T16:14:04;51.78;;;26.65;;
43817;SDS011;29868;47.360;18.984;2022-11-14T16:16:30;50.83;;;26.17;;
43817;SDS011;29868;47.360;18.984;2022-11-14T16:18:55;46.90;;;25.65;;
43817;SDS011;29868;47.360;18.984;2022-11-14T16:21:20;42.95;;;24.63;;
43817;SDS011;29868;47.360;18.984;2022-11-14T16:23:47;43.63;;;23.65;;
43817;SDS011;29868;47.360;18.984;2022-11-14T16:26:13;45.63;;;23.10;;
43817;SDS011;29868;47.360;18.984;2022-11-14T16:28:39;43.42;;;23.40;;
43817;SDS011;29868;47.360;18.984;2022-11-14T16:31:09;41.67;;;23.55;;
43817;SDS011;29868;47.360;18.984;2022-11-14T16:33:35;40.20;;;22.80;;
43817;SDS011;29868;47.360;18.984;2022-11-14T16:36:01;42.05;;;22.55;;
43817;SDS011;29868;47.360;18.984;2022-11-14T16:38:26;40.90;;;22.17;;
43817;SDS011;29868;47.360;18.984;2022-11-14T16:40:51;41.30;;;22.70;;
43817;SDS011;29868;47.360;18.984;2022-11-14T16:43:17;45.50;;;25.17;;
43817;SDS011;29868;47.360;18.984;2022-11-14T16:45:42;49.08;;;25.63;;